sensor_id;sensor_type;location;lat;lon;timestamp;P1;durP1;ratioP1;P2;durP2;ratioP2
40314;SDS011;26021;45.640;11.302;2022-11-15T00:01:14;10.38;;;7.22;;
40314;SDS011;26021;45.640;11.302;2022-11-15T00:03:41;11.13;;;7.53;;
40314;SDS011;26021;45.640;11.302;2022-11-15T00:06:08;9.68;;;7.07;;
40314;SDS011;26021;45.640;11.302;2022-11-15T00:08:33;8.80;;;6.97;;
40314;SDS011;26021;45.640;11.302;2022-11-15T00:11:00;11.75;;;7.28;;
40314;SDS011;26021;45.640;11.302;2022-11-15T00:13:27;8.63;;;7.22;;
40314;SDS011;26021;45.640;11.302;2022-11-15T00:15:52;10.63;;;7.45;;
40314;SDS011;26021;45.640;11.302;2022-11-15T00:18:21;9.95;;;7.50;;
40314;SDS011;26021;45.640;11.302;2022-11-15T00:20:46;10.32;;;7.35;;
40314;SDS011;26021;45.640;11.302;2022-11-15T00:23:12;8.65;;;7.68;;
40314;SDS011;26021;45.640;11.302;2022-11-15T00:25:37;9.38;;;7.32;;
40314;SDS011;26021;45.640;11.302;2022-11-15T00:28:03;9.23;;;6.90;;
40314;SDS011;26021;45.640;11.302;2022-11-15T00:30:28;6.93;;;6.22;;
40314;SDS011;26021;45.640;11.302;2022-11-15T00:32:53;6.47;;;5.85;;
40314;SDS011;26021;45.640;11.302;2022-11-15T00:35:19;7.55;;;6.75;;
40314;SDS011;26021;45.640;11.302;2022-11-15T00:37:45;7.68;;;6.60;;
40314;SDS011;26021;45.640;11.302;2022-11-15T00:40:12;6.28;;;5.68;;
40314;SDS011;26021;45.640;11.302;2022-11-15T00:42:38;7.07;;;5.75;;
40314;SDS011;26021;45.640;11.302;2022-11-15T00:45:04;7.10;;;6.15;;
40314;SDS011;26021;45.640;11.302;2022-11-15T00:47:30;7.38;;;6.60;;
40314;SDS011;26021;45.640;11.302;2022-11-15T00:49:55;6.93;;;6.22;;
40314;SDS011;26021;45.640;11.302;2022-11-15T00:52:21;8.38;;;6.38;;
40314;SDS011;26021;45.640;11.302;2022-11-15T00:54:46;8.15;;;6.55;;
40314;SDS011;26021;45.640;11.302;2022-11-15T00:57:12;9.52;;;6.28;;
40314;SDS011;26021;45.640;11.302;2022-11-15T00:59:37;7.50;;;6.38;;
40314;SDS011;26021;45.640;11.302;2022-11-15T01:02:02;6.25;;;5.40;;
40314;SDS011;26021;45.640;11.302;2022-11-15T01:04:28;11.50;;;6.07;;
40314;SDS011;26021;45.640;11.302;2022-11-15T01:06:53;6.90;;;6.15;;
40314;SDS011;26021;45.640;11.302;2022-11-15T01:09:19;6.53;;;5.80;;
40314;SDS011;26021;45.640;11.302;2022-11-15T01:11:44;6.28;;;5.68;;
40314;SDS011;26021;45.640;11.302;2022-11-15T01:14:10;6.72;;;5.95;;
40314;SDS011;26021;45.640;11.302;2022-11-15T01:16:35;7.78;;;6.20;;
40314;SDS011;26021;45.640;11.302;2022-11-15T01:19:01;8.07;;;5.85;;
40314;SDS011;26021;45.640;11.302;2022-11-15T01:21:26;8.60;;;6.50;;
40314;SDS011;26021;45.640;11.302;2022-11-15T01:23:52;9.18;;;6.75;;
40314;SDS011;26021;45.640;11.302;2022-11-15T01:26:22;10.48;;;6.50;;
40314;SDS011;26021;45.640;11.302;2022-11-15T01:28:48;7.95;;;6.50;;
40314;SDS011;26021;45.640;11.302;2022-11-15T01:31:16;7.97;;;6.90;;
40314;SDS011;26021;45.640;11.302;2022-11-15T01:33:43;7.60;;;6.60;;
40314;SDS011;26021;45.640;11.302;2022-11-15T01:36:10;8.20;;;6.00;;
40314;SDS011;26021;45.640;11.302;2022-11-15T01:38:38;7.35;;;5.72;;
40314;SDS011;26021;45.640;11.302;2022-11-15T01:41:03;9.70;;;6.60;;
40314;SDS011;26021;45.640;11.302;2022-11-15T01:43:30;7.18;;;6.22;;
40314;SDS011;26021;45.640;11.302;2022-11-15T01:46:01;8.73;;;6.00;;
40314;SDS011;26021;45.640;11.302;2022-11-15T01:48:32;7.50;;;6.13;;
40314;SDS011;26021;45.640;11.302;2022-11-15T01:51:03;7.50;;;6.13;;
40314;SDS011;26021;45.640;11.302;2022-11-15T01:53:33;6.15;;;5.55;;
40314;SDS011;26021;45.640;11.302;2022-11-15T01:56:04;6.57;;;5.60;;
40314;SDS011;26021;45.640;11.302;2022-11-15T01:58:33;5.93;;;4.88;;
40314;SDS011;26021;45.640;11.302;2022-11-15T02:01:00;5.07;;;4.45;;
40314;SDS011;26021;45.640;11.302;2022-11-15T02:03:26;5.15;;;4.65;;
40314;SDS011;26021;45.640;11.302;2022-11-15T02:06:01;6.60;;;5.15;;
40314;SDS011;26021;45.640;11.302;2022-11-15T02:08:28;6.72;;;5.18;;
40314;SDS011;26021;45.640;11.302;2022-11-15T02:10:54;8.15;;;5.18;;
40314;SDS011;26021;45.640;11.302;2022-11-15T02:13:19;6.38;;;5.60;;
40314;SDS011;26021;45.640;11.302;2022-11-15T02:18:40;7.32;;;5.78;;
40314;SDS011;26021;45.640;11.302;2022-11-15T02:21:59;5.25;;;4.75;;
40314;SDS011;26021;45.640;11.302;2022-11-15T02:24:07;6.72;;;5.85;;
40314;SDS011;26021;45.640;11.302;2022-11-15T02:40:53;8.32;;;6.05;;
40314;SDS011;26021;45.640;11.302;2022-11-15T02:46:31;9.63;;;6.97;;
40314;SDS011;26021;45.640;11.302;2022-11-15T02:49:20;8.77;;;5.88;;
40314;SDS011;26021;45.640;11.302;2022-11-15T02:51:48;6.25;;;5.50;;
40314;SDS011;26021;45.640;11.302;2022-11-15T02:54:22;6.95;;;5.85;;
40314;SDS011;26021;45.640;11.302;2022-11-15T02:56:51;9.70;;;5.95;;
40314;SDS011;26021;45.640;11.302;2022-11-15T03:02:11;7.47;;;5.13;;
40314;SDS011;26021;45.640;11.302;2022-11-15T03:07:29;4.82;;;4.43;;
40314;SDS011;26021;45.640;11.302;2022-11-15T03:10:18;4.97;;;4.10;;
40314;SDS011;26021;45.640;11.302;2022-11-15T03:13:14;6.28;;;5.18;;
40314;SDS011;26021;45.640;11.302;2022-11-15T03:16:15;5.90;;;4.70;;
40314;SDS011;26021;45.640;11.302;2022-11-15T03:18:35;5.40;;;4.80;;
40314;SDS011;26021;45.640;11.302;2022-11-15T03:21:04;6.22;;;5.10;;
40314;SDS011;26021;45.640;11.302;2022-11-15T03:23:33;5.47;;;4.93;;
40314;SDS011;26021;45.640;11.302;2022-11-15T03:26:01;5.88;;;4.63;;
40314;SDS011;26021;45.640;11.302;2022-11-15T03:28:42;4.90;;;4.47;;
40314;SDS011;26021;45.640;11.302;2022-11-15T03:31:13;5.30;;;4.57;;
40314;SDS011;26021;45.640;11.302;2022-11-15T03:33:58;5.78;;;5.00;;
40314;SDS011;26021;45.640;11.302;2022-11-15T03:36:29;7.50;;;4.88;;
40314;SDS011;26021;45.640;11.302;2022-11-15T03:38:58;6.13;;;4.70;;
40314;SDS011;26021;45.640;11.302;2022-11-15T03:49:42;5.47;;;4.55;;
40314;SDS011;26021;45.640;11.302;2022-11-15T03:52:17;4.47;;;4.07;;
40314;SDS011;26021;45.640;11.302;2022-11-15T03:54:48;5.63;;;4.90;;
40314;SDS011;26021;45.640;11.302;2022-11-15T03:57:14;5.93;;;4.70;;
40314;SDS011;26021;45.640;11.302;2022-11-15T03:59:40;6.18;;;4.65;;
40314;SDS011;26021;45.640;11.302;2022-11-15T04:02:05;6.22;;;4.55;;
40314;SDS011;26021;45.640;11.302;2022-11-15T04:04:31;5.95;;;5.10;;
40314;SDS011;26021;45.640;11.302;2022-11-15T04:06:56;5.93;;;4.65;;
40314;SDS011;26021;45.640;11.302;2022-11-15T04:09:21;6.00;;;4.82;;
40314;SDS011;26021;45.640;11.302;2022-11-15T04:11:47;6.38;;;5.40;;
40314;SDS011;26021;45.640;11.302;2022-11-15T04:14:12;5.15;;;4.65;;
40314;SDS011;26021;45.640;11.302;2022-11-15T04:16:38;5.00;;;4.50;;
40314;SDS011;26021;45.640;11.302;2022-11-15T04:19:03;5.63;;;4.57;;
40314;SDS011;26021;45.640;11.302;2022-11-15T04:21:47;5.18;;;4.68;;
40314;SDS011;26021;45.640;11.302;2022-11-15T04:24:31;5.23;;;4.73;;
40314;SDS011;26021;45.640;11.302;2022-11-15T04:26:56;4.45;;;4.05;;
40314;SDS011;26021;45.640;11.302;2022-11-15T04:29:22;5.03;;;4.53;;
40314;SDS011;26021;45.640;11.302;2022-11-15T04:31:59;5.20;;;4.70;;
40314;SDS011;26021;45.640;11.302;2022-11-15T04:34:25;5.35;;;4.45;;
40314;SDS011;26021;45.640;11.302;2022-11-15T04:36:51;4.72;;;4.32;;
40314;SDS011;26021;45.640;11.302;2022-11-15T04:39:35;5.60;;;5.10;;
40314;SDS011;26021;45.640;11.302;2022-11-15T04:42:00;5.97;;;5.35;;
40314;SDS011;26021;45.640;11.302;2022-11-15T04:44:25;6.35;;;4.85;;
40314;SDS011;26021;45.640;11.302;2022-11-15T04:46:51;6.18;;;4.88;;
40314;SDS011;26021;45.640;11.302;2022-11-15T04:49:16;5.75;;;4.80;;
40314;SDS011;26021;45.640;11.302;2022-11-15T04:51:42;4.90;;;4.40;;
40314;SDS011;26021;45.640;11.302;2022-11-15T04:54:07;7.93;;;4.85;;
40314;SDS011;26021;45.640;11.302;2022-11-15T04:56:32;4.68;;;4.28;;
40314;SDS011;26021;45.640;11.302;2022-11-15T04:58:58;5.85;;;4.65;;
40314;SDS011;26021;45.640;11.302;2022-11-15T05:01:23;5.07;;;4.57;;
40314;SDS011;26021;45.640;11.302;2022-11-15T05:03:48;6.85;;;5.63;;
40314;SDS011;26021;45.640;11.302;2022-11-15T05:06:32;5.57;;;4.63;;
40314;SDS011;26021;45.640;11.302;2022-11-15T05:08:58;5.45;;;4.93;;
40314;SDS011;26021;45.640;11.302;2022-11-15T05:11:24;6.05;;;4.57;;
40314;SDS011;26021;45.640;11.302;2022-11-15T05:13:51;4.72;;;4.25;;
40314;SDS011;26021;45.640;11.302;2022-11-15T05:16:17;6.40;;;5.75;;
40314;SDS011;26021;45.640;11.302;2022-11-15T05:18:43;7.75;;;5.35;;
40314;SDS011;26021;45.640;11.302;2022-11-15T05:21:12;6.57;;;5.28;;
40314;SDS011;26021;45.640;11.302;2022-11-15T05:23:39;5.70;;;5.10;;
40314;SDS011;26021;45.640;11.302;2022-11-15T05:26:06;5.25;;;4.75;;
40314;SDS011;26021;45.640;11.302;2022-11-15T05:28:32;8.18;;;4.88;;
40314;SDS011;26021;45.640;11.302;2022-11-15T05:31:16;7.05;;;5.25;;
40314;SDS011;26021;45.640;11.302;2022-11-15T05:33:42;6.72;;;5.53;;
40314;SDS011;26021;45.640;11.302;2022-11-15T05:38:56;5.82;;;5.22;;
40314;SDS011;26021;45.640;11.302;2022-11-15T05:41:24;8.38;;;5.70;;
40314;SDS011;26021;45.640;11.302;2022-11-15T05:43:52;6.38;;;5.30;;
40314;SDS011;26021;45.640;11.302;2022-11-15T05:46:18;7.15;;;6.28;;
40314;SDS011;26021;45.640;11.302;2022-11-15T05:48:45;8.00;;;5.90;;
40314;SDS011;26021;45.640;11.302;2022-11-15T05:51:14;10.20;;;6.97;;
40314;SDS011;26021;45.640;11.302;2022-11-15T05:53:42;8.75;;;6.85;;
40314;SDS011;26021;45.640;11.302;2022-11-15T05:56:09;7.40;;;6.57;;
40314;SDS011;26021;45.640;11.302;2022-11-15T05:58:35;8.40;;;7.50;;
40314;SDS011;26021;45.640;11.302;2022-11-15T06:01:02;10.48;;;8.30;;
40314;SDS011;26021;45.640;11.302;2022-11-15T06:03:27;8.75;;;7.28;;
40314;SDS011;26021;45.640;11.302;2022-11-15T06:05:53;8.93;;;7.50;;
40314;SDS011;26021;45.640;11.302;2022-11-15T06:08:19;8.85;;;6.55;;
40314;SDS011;26021;45.640;11.302;2022-11-15T06:10:44;8.18;;;6.90;;
40314;SDS011;26021;45.640;11.302;2022-11-15T06:13:09;8.60;;;6.88;;
40314;SDS011;26021;45.640;11.302;2022-11-15T06:15:35;11.38;;;8.52;;
40314;SDS011;26021;45.640;11.302;2022-11-15T06:18:00;8.05;;;7.25;;
40314;SDS011;26021;45.640;11.302;2022-11-15T06:20:26;10.75;;;7.53;;
40314;SDS011;26021;45.640;11.302;2022-11-15T06:23:00;7.43;;;6.43;;
40314;SDS011;26021;45.640;11.302;2022-11-15T06:25:27;9.45;;;6.38;;
40314;SDS011;26021;45.640;11.302;2022-11-15T06:27:54;9.63;;;7.18;;
40314;SDS011;26021;45.640;11.302;2022-11-15T06:30:20;9.63;;;6.90;;
40314;SDS011;26021;45.640;11.302;2022-11-15T06:32:46;10.63;;;7.40;;
40314;SDS011;26021;45.640;11.302;2022-11-15T06:35:12;10.52;;;8.73;;
40314;SDS011;26021;45.640;11.302;2022-11-15T06:37:38;9.27;;;7.55;;
40314;SDS011;26021;45.640;11.302;2022-11-15T06:40:04;9.65;;;6.55;;
40314;SDS011;26021;45.640;11.302;2022-11-15T06:42:30;12.82;;;10.85;;
40314;SDS011;26021;45.640;11.302;2022-11-15T06:44:55;8.85;;;7.90;;
40314;SDS011;26021;45.640;11.302;2022-11-15T06:47:21;8.23;;;6.82;;
40314;SDS011;26021;45.640;11.302;2022-11-15T06:49:46;8.50;;;6.63;;
40314;SDS011;26021;45.640;11.302;2022-11-15T06:52:12;7.57;;;6.70;;
40314;SDS011;26021;45.640;11.302;2022-11-15T06:54:37;8.02;;;7.22;;
40314;SDS011;26021;45.640;11.302;2022-11-15T06:57:03;7.13;;;6.43;;
40314;SDS011;26021;45.640;11.302;2022-11-15T06:59:29;10.05;;;7.38;;
40314;SDS011;26021;45.640;11.302;2022-11-15T07:01:55;10.75;;;7.25;;
40314;SDS011;26021;45.640;11.302;2022-11-15T07:04:20;10.60;;;8.00;;
40314;SDS011;26021;45.640;11.302;2022-11-15T07:06:46;10.98;;;7.82;;
40314;SDS011;26021;45.640;11.302;2022-11-15T07:09:12;12.95;;;8.32;;
40314;SDS011;26021;45.640;11.302;2022-11-15T07:11:38;10.05;;;7.68;;
40314;SDS011;26021;45.640;11.302;2022-11-15T07:14:03;11.38;;;7.80;;
40314;SDS011;26021;45.640;11.302;2022-11-15T07:16:29;9.52;;;8.10;;
40314;SDS011;26021;45.640;11.302;2022-11-15T07:18:54;8.65;;;7.75;;
40314;SDS011;26021;45.640;11.302;2022-11-15T07:21:20;9.02;;;8.13;;
40314;SDS011;26021;45.640;11.302;2022-11-15T07:23:45;8.70;;;7.80;;
40314;SDS011;26021;45.640;11.302;2022-11-15T07:26:10;8.57;;;7.47;;
40314;SDS011;26021;45.640;11.302;2022-11-15T07:28:36;8.85;;;7.63;;
40314;SDS011;26021;45.640;11.302;2022-11-15T07:31:04;8.82;;;7.80;;
40314;SDS011;26021;45.640;11.302;2022-11-15T07:33:30;8.95;;;7.90;;
40314;SDS011;26021;45.640;11.302;2022-11-15T07:36:03;10.38;;;7.22;;
40314;SDS011;26021;45.640;11.302;2022-11-15T07:38:30;9.82;;;7.25;;
40314;SDS011;26021;45.640;11.302;2022-11-15T07:41:00;8.68;;;7.28;;
40314;SDS011;26021;45.640;11.302;2022-11-15T07:43:28;7.32;;;6.65;;
40314;SDS011;26021;45.640;11.302;2022-11-15T07:45:54;7.32;;;6.65;;
40314;SDS011;26021;45.640;11.302;2022-11-15T07:48:20;7.22;;;6.43;;
40314;SDS011;26021;45.640;11.302;2022-11-15T07:50:46;8.77;;;6.95;;
40314;SDS011;26021;45.640;11.302;2022-11-15T07:53:11;7.63;;;6.57;;
40314;SDS011;26021;45.640;11.302;2022-11-15T07:55:37;7.97;;;6.70;;
40314;SDS011;26021;45.640;11.302;2022-11-15T07:58:05;7.72;;;6.93;;
40314;SDS011;26021;45.640;11.302;2022-11-15T08:00:32;6.68;;;6.05;;
40314;SDS011;26021;45.640;11.302;2022-11-15T08:03:02;8.00;;;6.05;;
40314;SDS011;26021;45.640;11.302;2022-11-15T08:05:34;7.70;;;6.22;;
40314;SDS011;26021;45.640;11.302;2022-11-15T08:08:01;10.02;;;6.80;;
40314;SDS011;26021;45.640;11.302;2022-11-15T08:10:27;7.60;;;6.90;;
40314;SDS011;26021;45.640;11.302;2022-11-15T08:13:00;8.60;;;6.93;;
40314;SDS011;26021;45.640;11.302;2022-11-15T08:15:27;10.00;;;7.93;;
40314;SDS011;26021;45.640;11.302;2022-11-15T08:17:54;9.45;;;8.50;;
40314;SDS011;26021;45.640;11.302;2022-11-15T08:20:20;9.00;;;8.02;;
40314;SDS011;26021;45.640;11.302;2022-11-15T08:22:46;10.57;;;7.18;;
40314;SDS011;26021;45.640;11.302;2022-11-15T08:25:11;8.10;;;7.22;;
40314;SDS011;26021;45.640;11.302;2022-11-15T08:27:37;10.77;;;8.20;;
40314;SDS011;26021;45.640;11.302;2022-11-15T08:30:02;8.40;;;7.03;;
40314;SDS011;26021;45.640;11.302;2022-11-15T08:32:28;9.38;;;7.47;;
40314;SDS011;26021;45.640;11.302;2022-11-15T08:34:55;11.23;;;8.52;;
40314;SDS011;26021;45.640;11.302;2022-11-15T08:37:20;17.27;;;8.98;;
40314;SDS011;26021;45.640;11.302;2022-11-15T08:39:45;11.73;;;7.90;;
40314;SDS011;26021;45.640;11.302;2022-11-15T08:42:11;8.80;;;7.93;;
40314;SDS011;26021;45.640;11.302;2022-11-15T08:44:36;10.00;;;8.07;;
40314;SDS011;26021;45.640;11.302;2022-11-15T08:47:02;9.70;;;8.20;;
40314;SDS011;26021;45.640;11.302;2022-11-15T08:49:27;10.85;;;8.70;;
40314;SDS011;26021;45.640;11.302;2022-11-15T08:51:52;12.23;;;8.68;;
40314;SDS011;26021;45.640;11.302;2022-11-15T08:54:18;11.43;;;8.80;;
40314;SDS011;26021;45.640;11.302;2022-11-15T08:56:43;10.32;;;9.18;;
40314;SDS011;26021;45.640;11.302;2022-11-15T08:59:09;9.23;;;7.93;;
40314;SDS011;26021;45.640;11.302;2022-11-15T09:01:34;9.48;;;8.23;;
40314;SDS011;26021;45.640;11.302;2022-11-15T09:04:00;8.75;;;7.75;;
40314;SDS011;26021;45.640;11.302;2022-11-15T09:06:25;10.05;;;8.30;;
40314;SDS011;26021;45.640;11.302;2022-11-15T09:08:50;12.30;;;8.70;;
40314;SDS011;26021;45.640;11.302;2022-11-15T09:11:16;12.35;;;9.48;;
40314;SDS011;26021;45.640;11.302;2022-11-15T09:13:45;13.27;;;9.23;;
40314;SDS011;26021;45.640;11.302;2022-11-15T09:16:10;11.63;;;9.40;;
40314;SDS011;26021;45.640;11.302;2022-11-15T09:18:37;11.52;;;9.07;;
40314;SDS011;26021;45.640;11.302;2022-11-15T09:21:03;14.55;;;9.82;;
40314;SDS011;26021;45.640;11.302;2022-11-15T09:23:29;12.23;;;9.00;;
40314;SDS011;26021;45.640;11.302;2022-11-15T09:25:58;10.32;;;9.23;;
40314;SDS011;26021;45.640;11.302;2022-11-15T09:28:26;11.50;;;9.75;;
40314;SDS011;26021;45.640;11.302;2022-11-15T09:30:55;11.10;;;9.20;;
40314;SDS011;26021;45.640;11.302;2022-11-15T09:33:22;11.15;;;9.52;;
40314;SDS011;26021;45.640;11.302;2022-11-15T09:35:47;10.50;;;9.02;;
40314;SDS011;26021;45.640;11.302;2022-11-15T09:38:13;11.52;;;9.23;;
40314;SDS011;26021;45.640;11.302;2022-11-15T09:40:38;11.00;;;8.70;;
40314;SDS011;26021;45.640;11.302;2022-11-15T09:45:58;9.95;;;8.60;;
40314;SDS011;26021;45.640;11.302;2022-11-15T09:51:13;13.55;;;11.15;;
40314;SDS011;26021;45.640;11.302;2022-11-15T09:54:46;12.53;;;10.47;;
40314;SDS011;26021;45.640;11.302;2022-11-15T09:56:54;10.52;;;9.13;;
40314;SDS011;26021;45.640;11.302;2022-11-15T10:04:27;9.48;;;8.48;;
40314;SDS011;26021;45.640;11.302;2022-11-15T10:10:00;8.55;;;7.72;;
40314;SDS011;26021;45.640;11.302;2022-11-15T10:12:33;8.25;;;6.90;;
40314;SDS011;26021;45.640;11.302;2022-11-15T10:15:01;9.70;;;7.18;;
40314;SDS011;26021;45.640;11.302;2022-11-15T10:22:50;7.93;;;7.15;;
40314;SDS011;26021;45.640;11.302;2022-11-15T10:27:55;8.25;;;6.35;;
40314;SDS011;26021;45.640;11.302;2022-11-15T10:30:24;8.48;;;6.93;;
40314;SDS011;26021;45.640;11.302;2022-11-15T10:33:00;8.02;;;7.28;;
40314;SDS011;26021;45.640;11.302;2022-11-15T10:35:48;7.97;;;7.18;;
40314;SDS011;26021;45.640;11.302;2022-11-15T10:38:13;8.63;;;6.85;;
40314;SDS011;26021;45.640;11.302;2022-11-15T10:40:39;8.40;;;6.95;;
40314;SDS011;26021;45.640;11.302;2022-11-15T10:45:34;7.95;;;7.13;;
40314;SDS011;26021;45.640;11.302;2022-11-15T10:50:37;8.55;;;7.53;;
40314;SDS011;26021;45.640;11.302;2022-11-15T10:53:04;11.50;;;8.10;;
40314;SDS011;26021;45.640;11.302;2022-11-15T10:55:49;12.38;;;7.90;;
40314;SDS011;26021;45.640;11.302;2022-11-15T11:01:20;7.90;;;6.85;;
40314;SDS011;26021;45.640;11.302;2022-11-15T11:03:58;7.90;;;7.10;;
40314;SDS011;26021;45.640;11.302;2022-11-15T11:06:24;7.97;;;6.75;;
40314;SDS011;26021;45.640;11.302;2022-11-15T11:08:57;8.45;;;6.85;;
40314;SDS011;26021;45.640;11.302;2022-11-15T11:11:23;9.30;;;7.78;;
40314;SDS011;26021;45.640;11.302;2022-11-15T11:13:49;10.43;;;8.18;;
40314;SDS011;26021;45.640;11.302;2022-11-15T11:21:10;10.20;;;8.38;;
40314;SDS011;26021;45.640;11.302;2022-11-15T11:24:14;11.05;;;8.13;;
40314;SDS011;26021;45.640;11.302;2022-11-15T11:35:17;7.80;;;7.00;;
40314;SDS011;26021;45.640;11.302;2022-11-15T11:37:57;7.35;;;6.57;;
40314;SDS011;26021;45.640;11.302;2022-11-15T11:49:16;8.68;;;5.28;;
40314;SDS011;26021;45.640;11.302;2022-11-15T11:57:41;6.82;;;6.22;;
40314;SDS011;26021;45.640;11.302;2022-11-15T12:00:23;7.85;;;7.05;;
40314;SDS011;26021;45.640;11.302;2022-11-15T12:05:30;9.15;;;7.57;;
40314;SDS011;26021;45.640;11.302;2022-11-15T12:08:40;8.65;;;7.72;;
40314;SDS011;26021;45.640;11.302;2022-11-15T12:11:03;8.18;;;7.38;;
40314;SDS011;26021;45.640;11.302;2022-11-15T12:13:30;8.55;;;7.72;;
40314;SDS011;26021;45.640;11.302;2022-11-15T12:16:02;8.88;;;7.55;;
40314;SDS011;26021;45.640;11.302;2022-11-15T12:18:28;8.68;;;7.78;;
40314;SDS011;26021;45.640;11.302;2022-11-15T12:20:55;7.97;;;7.18;;
40314;SDS011;26021;45.640;11.302;2022-11-15T12:23:53;7.45;;;6.75;;
40314;SDS011;26021;45.640;11.302;2022-11-15T12:26:29;6.53;;;5.82;;
40314;SDS011;26021;45.640;11.302;2022-11-15T12:29:04;8.90;;;6.88;;
40314;SDS011;26021;45.640;11.302;2022-11-15T12:31:38;11.75;;;9.63;;
40314;SDS011;26021;45.640;11.302;2022-11-15T12:36:44;13.88;;;10.07;;
40314;SDS011;26021;45.640;11.302;2022-11-15T12:39:11;8.82;;;7.47;;
40314;SDS011;26021;45.640;11.302;2022-11-15T12:41:41;10.23;;;7.90;;
40314;SDS011;26021;45.640;11.302;2022-11-15T12:44:11;9.68;;;7.70;;
40314;SDS011;26021;45.640;11.302;2022-11-15T13:02:27;7.35;;;5.95;;
40314;SDS011;26021;45.640;11.302;2022-11-15T13:17:37;7.05;;;6.35;;
40314;SDS011;26021;45.640;11.302;2022-11-15T13:20:14;7.68;;;6.97;;
40314;SDS011;26021;45.640;11.302;2022-11-15T13:28:11;9.73;;;7.10;;
40314;SDS011;26021;45.640;11.302;2022-11-15T13:30:55;8.05;;;7.25;;
40314;SDS011;26021;45.640;11.302;2022-11-15T13:33:24;8.35;;;7.45;;
40314;SDS011;26021;45.640;11.302;2022-11-15T13:35:50;10.15;;;8.45;;
40314;SDS011;26021;45.640;11.302;2022-11-15T13:38:25;9.82;;;8.68;;
40314;SDS011;26021;45.640;11.302;2022-11-15T13:40:52;10.73;;;8.73;;
40314;SDS011;26021;45.640;11.302;2022-11-15T13:49:08;10.10;;;8.98;;
40314;SDS011;26021;45.640;11.302;2022-11-15T13:51:53;10.48;;;9.40;;
40314;SDS011;26021;45.640;11.302;2022-11-15T13:57:04;9.48;;;8.55;;
40314;SDS011;26021;45.640;11.302;2022-11-15T13:59:36;10.50;;;9.32;;
40314;SDS011;26021;45.640;11.302;2022-11-15T14:02:17;11.10;;;9.85;;
40314;SDS011;26021;45.640;11.302;2022-11-15T14:04:48;11.18;;;10.07;;
40314;SDS011;26021;45.640;11.302;2022-11-15T14:07:25;10.50;;;9.32;;
40314;SDS011;26021;45.640;11.302;2022-11-15T14:09:53;10.45;;;9.40;;
40314;SDS011;26021;45.640;11.302;2022-11-15T14:14:50;12.90;;;9.50;;
40314;SDS011;26021;45.640;11.302;2022-11-15T14:19:54;15.70;;;13.70;;
40314;SDS011;26021;45.640;11.302;2022-11-15T14:22:21;16.50;;;13.95;;
40314;SDS011;26021;45.640;11.302;2022-11-15T14:30:30;13.98;;;11.23;;
40314;SDS011;26021;45.640;11.302;2022-11-15T14:32:55;16.63;;;13.90;;
40314;SDS011;26021;45.640;11.302;2022-11-15T14:35:21;16.58;;;13.15;;
40314;SDS011;26021;45.640;11.302;2022-11-15T14:37:48;17.25;;;15.50;;
40314;SDS011;26021;45.640;11.302;2022-11-15T14:40:20;17.38;;;15.68;;
40314;SDS011;26021;45.640;11.302;2022-11-15T14:42:48;14.98;;;13.38;;
40314;SDS011;26021;45.640;11.302;2022-11-15T14:45:16;17.98;;;15.57;;
40314;SDS011;26021;45.640;11.302;2022-11-15T14:47:43;21.48;;;17.27;;
40314;SDS011;26021;45.640;11.302;2022-11-15T14:50:15;19.50;;;14.75;;
40314;SDS011;26021;45.640;11.302;2022-11-15T14:52:43;18.17;;;14.82;;
40314;SDS011;26021;45.640;11.302;2022-11-15T14:55:19;16.85;;;14.20;;
40314;SDS011;26021;45.640;11.302;2022-11-15T14:57:48;16.85;;;14.18;;
40314;SDS011;26021;45.640;11.302;2022-11-15T15:00:13;18.33;;;15.80;;
40314;SDS011;26021;45.640;11.302;2022-11-15T15:02:40;17.42;;;14.23;;
40314;SDS011;26021;45.640;11.302;2022-11-15T15:05:13;16.05;;;13.65;;
40314;SDS011;26021;45.640;11.302;2022-11-15T15:07:39;15.35;;;13.05;;
40314;SDS011;26021;45.640;11.302;2022-11-15T15:10:04;13.45;;;12.02;;
40314;SDS011;26021;45.640;11.302;2022-11-15T15:12:30;14.25;;;12.40;;
40314;SDS011;26021;45.640;11.302;2022-11-15T15:14:55;14.82;;;13.25;;
40314;SDS011;26021;45.640;11.302;2022-11-15T15:17:21;16.25;;;14.13;;
40314;SDS011;26021;45.640;11.302;2022-11-15T15:19:46;20.20;;;16.83;;
40314;SDS011;26021;45.640;11.302;2022-11-15T15:22:14;57.85;;;34.28;;
40314;SDS011;26021;45.640;11.302;2022-11-15T15:24:41;68.93;;;34.53;;
40314;SDS011;26021;45.640;11.302;2022-11-15T15:27:08;31.63;;;20.15;;
40314;SDS011;26021;45.640;11.302;2022-11-15T15:29:34;158.07;;;70.78;;
40314;SDS011;26021;45.640;11.302;2022-11-15T15:31:59;132.65;;;59.83;;
40314;SDS011;26021;45.640;11.302;2022-11-15T15:34:24;43.25;;;25.90;;
40314;SDS011;26021;45.640;11.302;2022-11-15T15:37:05;23.25;;;17.80;;
40314;SDS011;26021;45.640;11.302;2022-11-15T15:39:48;19.25;;;16.23;;
40314;SDS011;26021;45.640;11.302;2022-11-15T15:42:14;22.73;;;17.85;;
40314;SDS011;26021;45.640;11.302;2022-11-15T15:44:39;21.42;;;18.13;;
40314;SDS011;26021;45.640;11.302;2022-11-15T15:47:23;24.17;;;20.88;;
40314;SDS011;26021;45.640;11.302;2022-11-15T15:49:48;22.00;;;18.58;;
40314;SDS011;26021;45.640;11.302;2022-11-15T15:52:15;23.27;;;17.52;;
40314;SDS011;26021;45.640;11.302;2022-11-15T15:54:41;22.38;;;18.00;;
40314;SDS011;26021;45.640;11.302;2022-11-15T15:57:07;22.42;;;18.27;;
40314;SDS011;26021;45.640;11.302;2022-11-15T15:59:35;23.67;;;19.92;;
40314;SDS011;26021;45.640;11.302;2022-11-15T16:02:01;25.17;;;19.20;;
40314;SDS011;26021;45.640;11.302;2022-11-15T16:04:26;26.25;;;21.40;;
40314;SDS011;26021;45.640;11.302;2022-11-15T16:06:57;96.53;;;51.83;;
40314;SDS011;26021;45.640;11.302;2022-11-15T16:09:23;77.82;;;43.88;;
40314;SDS011;26021;45.640;11.302;2022-11-15T16:12:09;52.47;;;31.83;;
40314;SDS011;26021;45.640;11.302;2022-11-15T16:14:35;40.30;;;28.45;;
40314;SDS011;26021;45.640;11.302;2022-11-15T16:17:00;31.25;;;24.77;;
40314;SDS011;26021;45.640;11.302;2022-11-15T16:19:26;28.67;;;22.67;;
40314;SDS011;26021;45.640;11.302;2022-11-15T16:21:51;26.77;;;21.58;;
40314;SDS011;26021;45.640;11.302;2022-11-15T16:24:17;27.40;;;23.05;;
40314;SDS011;26021;45.640;11.302;2022-11-15T16:26:43;28.77;;;23.52;;
40314;SDS011;26021;45.640;11.302;2022-11-15T16:29:10;28.67;;;23.77;;
40314;SDS011;26021;45.640;11.302;2022-11-15T16:31:36;24.83;;;21.90;;
40314;SDS011;26021;45.640;11.302;2022-11-15T16:34:01;27.98;;;24.42;;
40314;SDS011;26021;45.640;11.302;2022-11-15T16:36:27;25.55;;;22.35;;
40314;SDS011;26021;45.640;11.302;2022-11-15T16:38:58;29.00;;;24.15;;
40314;SDS011;26021;45.640;11.302;2022-11-15T16:41:24;28.45;;;23.90;;
40314;SDS011;26021;45.640;11.302;2022-11-15T16:43:50;26.17;;;23.05;;
40314;SDS011;26021;45.640;11.302;2022-11-15T16:46:17;27.92;;;23.38;;
40314;SDS011;26021;45.640;11.302;2022-11-15T16:48:46;30.60;;;24.63;;
40314;SDS011;26021;45.640;11.302;2022-11-15T16:51:13;28.55;;;23.40;;
40314;SDS011;26021;45.640;11.302;2022-11-15T16:53:39;24.45;;;21.77;;
40314;SDS011;26021;45.640;11.302;2022-11-15T16:56:22;29.52;;;23.38;;
40314;SDS011;26021;45.640;11.302;2022-11-15T16:58:50;25.67;;;22.60;;
40314;SDS011;26021;45.640;11.302;2022-11-15T17:01:20;27.92;;;22.90;;
40314;SDS011;26021;45.640;11.302;2022-11-15T17:03:48;27.67;;;22.35;;
40314;SDS011;26021;45.640;11.302;2022-11-15T17:06:13;34.83;;;27.17;;
40314;SDS011;26021;45.640;11.302;2022-11-15T17:08:39;37.38;;;29.20;;